Time;durP1;ratioP1;P1;durP2;ratioP2;P2;SDS_P1;SDS_P2;PMS_P1;PMS_P2;Temp;Humidity;BMP_temperature;BMP_pressure;BME280_temperature;BME280_humidity;BME280_pressure;Samples;Min_cycle;Max_cycle;Signal;HPM_P1;HPM_P2
2022/04/29 00:00:24;;;;;;;18.52;5.63;;;;;;;8.76;74.03;103061.78;5078924;28;20036;-80
2022/04/29 00:02:51;;;;;;;15.82;5.60;;;;;;;8.71;74.50;103066.66;5086493;28;20032;-79
2022/04/29 00:05:17;;;;;;;14.93;5.68;;;;;;;8.68;74.77;103069.56;5087423;28;20028;-80
2022/04/29 00:07:42;;;;;;;11.38;6.00;;;;;;;8.67;74.84;103057.97;5085938;28;20039;-80
2022/04/29 00:10:12;;;;;;;13.73;5.78;;;;;;;8.70;74.48;103054.22;5070390;28;20032;-80
2022/04/29 00:12:39;;;;;;;8.27;5.30;;;;;;;8.62;74.92;103045.88;5084651;28;20021;-80
2022/04/29 00:15:05;;;;;;;8.77;5.15;;;;;;;8.62;74.77;103045.88;5086488;28;20025;-79
2022/04/29 00:17:32;;;;;;;13.60;5.63;;;;;;;8.57;75.15;103041.69;5079567;28;20101;-80
2022/04/29 00:19:58;;;;;;;15.57;5.78;;;;;;;8.57;75.45;103041.69;5075689;28;20482;-80
2022/04/29 00:22:23;;;;;;;12.77;5.25;;;;;;;8.61;75.54;103041.47;5075061;28;20036;-81
2022/04/29 00:24:49;;;;;;;13.57;5.57;;;;;;;8.60;75.61;103040.63;5074212;28;20052;-82
2022/04/29 00:27:14;;;;;;;14.55;5.32;;;;;;;8.61;75.38;103038.78;5056929;28;20040;-81
2022/04/29 00:29:39;;;;;;;13.00;5.47;;;;;;;8.59;75.28;103032.69;5056791;28;20465;-81
2022/04/29 00:32:05;;;;;;;8.55;5.40;;;;;;;8.58;75.67;103037.19;5056077;28;20421;-81
2022/04/29 00:34:30;;;;;;;11.85;5.60;;;;;;;8.56;75.47;103045.38;5055101;28;20053;-80
2022/04/29 00:36:56;;;;;;;10.93;5.65;;;;;;;8.58;75.72;103037.19;5056014;28;20040;-79
2022/04/29 00:39:23;;;;;;;15.07;5.72;;;;;;;8.54;75.67;103039.25;5071640;28;20028;-79
2022/04/29 00:41:48;;;;;;;9.33;5.00;;;;;;;8.56;76.17;103034.63;5072037;28;20032;-79
2022/04/29 00:44:14;;;;;;;15.98;5.93;;;;;;;8.59;76.16;103027.34;5071941;28;20033;-77
2022/04/29 00:46:41;;;;;;;12.27;6.20;;;;;;;8.51;76.43;103026.06;5078190;28;20058;-77
2022/04/29 00:49:08;;;;;;;15.45;6.50;;;;;;;8.46;76.51;103022.88;5075662;28;20036;-79
2022/04/29 00:51:35;;;;;;;17.48;6.47;;;;;;;8.34;77.02;103027.28;5070532;28;20033;-80
2022/04/29 00:54:03;;;;;;;15.68;7.07;;;;;;;8.28;77.30;103024.22;5054101;28;20123;-79
2022/04/29 00:56:30;;;;;;;19.13;7.05;;;;;;;8.26;77.45;103021.63;5056315;28;20025;-79
2022/04/29 00:59:09;;;;;;;15.20;6.05;;;;;;;8.25;76.99;103019.91;5060689;28;20028;-78
2022/04/29 01:01:36;;;;;;;12.48;5.85;;;;;;;8.17;76.52;103018.78;5055686;28;20032;-79
2022/04/29 01:04:02;;;;;;;14.80;5.47;;;;;;;8.13;76.25;103023.50;5059012;28;20025;-79
2022/04/29 01:06:28;;;;;;;16.33;6.25;;;;;;;8.09;76.06;103020.19;5062892;28;20029;-80
2022/04/29 01:08:53;;;;;;;15.38;5.45;;;;;;;8.05;75.86;103012.47;5072897;28;20173;-79
2022/04/29 01:11:23;;;;;;;10.88;5.30;;;;;;;8.04;75.82;103005.41;5076639;28;20032;-79
2022/04/29 01:13:50;;;;;;;10.65;4.93;;;;;;;7.97;75.50;103013.03;5075848;28;20059;-79
2022/04/29 01:16:15;;;;;;;16.17;5.20;;;;;;;8.00;75.44;103004.75;5078574;28;20098;-79
2022/04/29 01:18:41;;;;;;;16.25;5.20;;;;;;;7.96;75.08;103000.59;5079143;28;20471;-79
2022/04/29 01:21:07;;;;;;;14.02;5.25;;;;;;;7.95;75.23;103012.28;5078070;28;20036;-80
2022/04/29 01:23:33;;;;;;;13.70;5.10;;;;;;;7.87;74.91;103012.88;5081796;28;20029;-79
2022/04/29 01:25:58;;;;;;;15.45;5.28;;;;;;;7.88;74.94;103016.41;5084642;28;20499;-79
2022/04/29 01:28:24;;;;;;;22.13;5.63;;;;;;;7.84;75.15;103004.16;5066962;28;20031;-79
2022/04/29 01:30:51;;;;;;;8.13;5.03;;;;;;;7.87;75.02;103004.81;5083545;28;20048;-80
2022/04/29 01:33:18;;;;;;;11.30;5.15;;;;;;;7.85;75.33;103004.06;5081232;28;20472;-80
2022/04/29 01:35:43;;;;;;;12.48;4.97;;;;;;;7.88;74.87;103006.53;5069218;28;20083;-80
2022/04/29 01:38:09;;;;;;;14.20;5.15;;;;;;;7.92;74.63;102999.09;5065731;28;20063;-80
2022/04/29 01:40:34;;;;;;;10.13;4.35;;;;;;;7.83;74.58;102997.09;5062966;28;20024;-83
2022/04/29 01:42:59;;;;;;;12.45;4.40;;;;;;;7.76;74.80;102985.94;5060618;28;20055;-82
2022/04/29 01:45:25;;;;;;;12.02;5.00;;;;;;;7.72;74.68;102989.00;5074233;28;20059;-83
2022/04/29 01:47:50;;;;;;;10.50;4.68;;;;;;;7.72;75.13;102992.53;5094204;28;20029;-82
2022/04/29 01:50:15;;;;;;;13.68;5.07;;;;;;;7.67;75.16;102984.81;5095160;28;20088;-83
2022/04/29 01:52:40;;;;;;;11.68;5.03;;;;;;;7.69;74.82;102988.25;5089905;28;20058;-83
2022/04/29 01:55:06;;;;;;;10.93;5.20;;;;;;;7.67;74.94;102983.94;5069265;28;20029;-82
2022/04/29 01:57:31;;;;;;;12.25;4.80;;;;;;;7.70;74.65;102997.13;5067062;28;20083;-82
2022/04/29 01:59:57;;;;;;;17.13;5.10;;;;;;;7.63;75.14;102993.16;5065709;28;20086;-84
2022/04/29 02:02:23;;;;;;;15.20;6.05;;;;;;;7.54;75.05;102992.00;5065016;28;20037;-82
2022/04/29 02:04:48;;;;;;;12.98;5.07;;;;;;;7.53;75.20;102984.06;5060882;28;20033;-83
2022/04/29 02:07:14;;;;;;;16.20;5.55;;;;;;;7.57;75.48;102991.78;5056774;28;20036;-83
2022/04/29 02:09:39;;;;;;;12.85;5.15;;;;;;;7.56;75.36;102992.75;5062796;28;20114;-84
2022/04/29 02:12:05;;;;;;;12.60;5.47;;;;;;;7.58;75.24;102998.88;5085628;28;20029;-83
2022/04/29 02:14:36;;;;;;;15.43;5.90;;;;;;;7.59;75.16;102999.72;5065434;28;20094;-84
2022/04/29 02:17:03;;;;;;;16.48;5.07;;;;;;;7.56;75.28;103003.47;5073742;28;20048;-83
2022/04/29 02:19:29;;;;;;;21.05;5.22;;;;;;;7.61;75.15;103001.34;5078094;28;20021;-82
2022/04/29 02:21:55;;;;;;;13.98;4.70;;;;;;;7.64;74.81;103001.13;5060023;28;20051;-83
2022/04/29 02:24:20;;;;;;;17.33;5.35;;;;;;;7.67;75.08;102986.63;5063144;28;20396;-83
2022/04/29 02:26:46;;;;;;;12.73;4.75;;;;;;;7.68;75.12;102991.88;5060667;28;20029;-84
2022/04/29 02:29:12;;;;;;;13.85;5.00;;;;;;;7.68;75.00;102991.88;5063628;28;20030;-83
2022/04/29 02:31:38;;;;;;;12.15;5.20;;;;;;;7.69;74.95;102992.75;5078306;28;20030;-83
2022/04/29 02:34:03;;;;;;;15.02;5.20;;;;;;;7.68;74.78;102991.88;5079310;28;20044;-80
2022/04/29 02:36:29;;;;;;;20.05;5.38;;;;;;;7.65;74.55;102989.41;5054348;28;20021;-78
2022/04/29 02:38:54;;;;;;;19.75;5.40;;;;;;;7.61;74.71;102981.69;5068493;28;20029;-80
2022/04/29 02:41:19;;;;;;;10.40;5.85;;;;;;;7.64;74.78;102979.66;5074867;28;20031;-80
2022/04/29 02:43:45;;;;;;;14.63;4.93;;;;;;;7.61;74.73;102977.22;5081426;28;20043;-78
2022/04/29 02:46:10;;;;;;;20.00;5.07;;;;;;;7.58;75.07;102972.09;5069700;28;20021;-80
2022/04/29 02:48:36;;;;;;;18.27;5.25;;;;;;;7.60;74.67;102975.47;5065555;28;20044;-79
2022/04/29 02:51:04;;;;;;;12.93;5.38;;;;;;;7.53;75.06;102979.59;5072314;28;20028;-83
2022/04/29 02:53:30;;;;;;;16.17;6.05;;;;;;;7.54;74.90;102975.94;5064625;28;20309;-83
2022/04/29 02:55:55;;;;;;;15.57;5.38;;;;;;;7.53;75.30;102974.22;5093605;28;20039;-82
2022/04/29 02:58:21;;;;;;;13.80;4.82;;;;;;;7.53;75.31;102984.06;5091311;28;20043;-81
2022/04/29 03:00:46;;;;;;;15.02;4.45;;;;;;;7.51;75.44;102989.56;5090965;28;20029;-81
2022/04/29 03:03:11;;;;;;;14.00;5.40;;;;;;;7.56;75.96;102982.03;5088279;28;20032;-80
2022/04/29 03:05:38;;;;;;;16.27;5.60;;;;;;;7.64;75.62;102981.50;5075634;28;20036;-82
2022/04/29 03:08:04;;;;;;;15.45;6.03;;;;;;;7.58;75.64;102972.09;5073264;28;20029;-82
2022/04/29 03:10:29;;;;;;;11.88;4.97;;;;;;;7.63;75.77;102974.41;5079712;28;20707;-81
2022/04/29 03:12:54;;;;;;;11.23;4.85;;;;;;;7.68;75.27;102964.22;5073351;28;20025;-79
2022/04/29 03:15:20;;;;;;;16.10;6.32;;;;;;;7.58;75.18;102969.41;5089350;28;20063;-81
2022/04/29 03:20:35;;;;;;;10.10;5.00;;;;;;;7.63;75.28;102974.41;5086365;28;20086;-80
2022/04/29 03:23:00;;;;;;;16.60;5.40;;;;;;;7.63;75.13;102974.41;5086863;28;20032;-81
2022/04/29 03:25:26;;;;;;;11.55;4.57;;;;;;;7.64;75.09;102966.28;5090904;28;20022;-81
2022/04/29 03:27:51;;;;;;;12.65;4.78;;;;;;;7.66;75.09;102969.69;5088938;28;20071;-82
2022/04/29 03:30:16;;;;;;;14.63;4.93;;;;;;;7.66;74.92;102964.34;5089175;28;20036;-80
2022/04/29 03:32:59;;;;;;;12.82;4.75;;;;;;;7.62;75.06;102964.66;5087892;28;20273;-79
2022/04/29 03:35:25;;;;;;;12.93;4.85;;;;;;;7.65;75.22;102951.03;5084648;28;20055;-82
2022/04/29 03:37:52;;;;;;;16.65;5.30;;;;;;;7.62;75.41;102945.91;5088126;28;20054;-81
2022/04/29 03:40:23;;;;;;;15.00;5.20;;;;;;;7.53;75.40;102947.44;5082553;28;20036;-79
2022/04/29 03:42:49;;;;;;;14.98;5.50;;;;;;;7.51;75.67;102937.78;5089802;28;20036;-80
2022/04/29 03:45:15;;;;;;;8.40;4.50;;;;;;;7.53;75.99;102936.72;5089649;28;21368;-79
2022/04/29 03:47:41;;;;;;;12.43;4.43;;;;;;;7.51;75.90;102927.06;5092799;28;20040;-81
2022/04/29 03:50:07;;;;;;;13.32;4.57;;;;;;;7.51;76.06;102921.72;5091909;28;20036;-79
2022/04/29 03:52:32;;;;;;;14.52;5.35;;;;;;;7.52;75.96;102920.75;5087325;28;20305;-80
2022/04/29 03:54:58;;;;;;;13.63;5.30;;;;;;;7.51;75.94;102922.56;5091687;28;20055;-81
2022/04/29 03:57:23;;;;;;;15.73;5.43;;;;;;;7.41;76.00;102916.16;5091343;28;20056;-78
2022/04/29 03:59:49;;;;;;;13.80;5.20;;;;;;;7.40;75.97;102914.47;5088375;28;20060;-80
2022/04/29 04:02:14;;;;;;;11.60;5.25;;;;;;;7.32;76.15;102922.16;5088514;28;20067;-79
2022/04/29 04:04:40;;;;;;;12.63;5.03;;;;;;;7.29;76.84;102923.22;5090473;28;20017;-79
2022/04/29 04:07:05;;;;;;;11.95;5.25;;;;;;;7.29;76.54;102914.34;5084971;28;20037;-79
2022/04/29 04:09:30;;;;;;;11.80;5.53;;;;;;;7.26;76.69;102918.09;5071706;28;20044;-81
2022/04/29 04:11:56;;;;;;;14.70;5.82;;;;;;;7.23;76.61;102918.31;5088627;28;20016;-79
2022/04/29 04:14:21;;;;;;;17.92;6.75;;;;;;;7.19;76.89;102917.69;5093817;28;20033;-78
2022/04/29 04:16:47;;;;;;;12.15;6.00;;;;;;;7.17;76.98;102921.44;5097440;28;20033;-80
2022/04/29 04:19:13;;;;;;;14.27;5.97;;;;;;;7.14;77.27;102925.19;5096837;28;20055;-78
2022/04/29 04:21:39;;;;;;;20.27;6.10;;;;;;;7.11;77.54;102920.06;5095645;28;20020;-79
2022/04/29 04:24:05;;;;;;;16.83;6.72;;;;;;;7.12;77.07;102927.13;5086117;28;20429;-79
2022/04/29 04:26:32;;;;;;;15.30;5.70;;;;;;;7.13;77.41;102936.84;5078994;28;20602;-77
2022/04/29 04:28:57;;;;;;;18.75;6.45;;;;;;;7.17;77.58;102933.00;5082751;28;20033;-78
2022/04/29 04:31:24;;;;;;;15.20;6.22;;;;;;;7.19;77.27;102930.25;5083833;28;20058;-79
2022/04/29 04:33:52;;;;;;;16.27;5.90;;;;;;;7.26;77.21;102934.16;5090394;28;20025;-77
2022/04/29 04:36:18;;;;;;;17.52;5.95;;;;;;;7.25;77.32;102930.63;5073566;28;20068;-80
2022/04/29 04:38:44;;;;;;;16.23;5.93;;;;;;;7.27;77.36;102930.53;5076539;28;20039;-78
2022/04/29 04:41:10;;;;;;;19.15;6.45;;;;;;;7.28;77.47;102931.41;5078657;28;20040;-78
2022/04/29 04:43:36;;;;;;;14.40;5.78;;;;;;;7.33;77.33;102939.97;5078802;28;20039;-77
2022/04/29 04:46:01;;;;;;;17.67;6.20;;;;;;;7.33;76.98;102939.97;5074007;28;20055;-79
2022/04/29 04:48:26;;;;;;;17.95;5.72;;;;;;;7.34;77.02;102938.97;5074225;28;20056;-79
2022/04/29 04:50:53;;;;;;;14.50;5.50;;;;;;;7.36;77.06;102945.09;5074370;28;20047;-77
2022/04/29 04:53:18;;;;;;;18.30;5.03;;;;;;;7.39;76.70;102944.88;5073501;28;20028;-78
2022/04/29 04:55:44;;;;;;;19.85;5.43;;;;;;;7.40;76.44;102951.97;5072774;28;20033;-77
2022/04/29 04:58:09;;;;;;;11.88;5.10;;;;;;;7.42;76.31;102944.66;5072114;28;20372;-79
2022/04/29 05:00:36;;;;;;;9.55;5.22;;;;;;;7.43;76.06;102944.56;5071972;28;20043;-75
2022/04/29 05:03:01;;;;;;;16.98;5.30;;;;;;;7.38;76.40;102943.16;5073208;28;20039;-76
2022/04/29 05:05:26;;;;;;;15.40;5.45;;;;;;;7.44;76.42;102942.72;5072539;28;20021;-77
2022/04/29 05:07:52;;;;;;;12.82;4.60;;;;;;;7.42;76.31;102944.66;5072387;28;20024;-77
2022/04/29 05:10:18;;;;;;;17.67;5.10;;;;;;;7.40;76.03;102941.25;5072513;28;20163;-78
2022/04/29 05:12:46;;;;;;;17.75;5.63;;;;;;;7.43;76.25;102930.31;5057766;28;20116;-78
2022/04/29 05:15:13;;;;;;;15.43;5.35;;;;;;;7.45;76.16;102934.59;5070509;28;20093;-77
2022/04/29 05:17:39;;;;;;;19.17;4.75;;;;;;;7.51;76.13;102938.66;5056344;28;20131;-76
2022/04/29 05:20:06;;;;;;;18.90;5.43;;;;;;;7.59;75.93;102936.25;5075307;28;20107;-75
2022/04/29 05:22:31;;;;;;;11.60;5.13;;;;;;;7.61;76.05;102938.81;5065523;28;20452;-78
2022/04/29 05:24:57;;;;;;;12.40;5.40;;;;;;;7.67;75.48;102944.59;5054679;28;20036;-77
2022/04/29 05:27:22;;;;;;;15.00;4.97;;;;;;;7.76;75.28;102939.53;5056340;28;20049;-76
2022/04/29 05:29:47;;;;;;;15.35;4.80;;;;;;;7.85;75.45;102942.41;5058051;28;20025;-77
2022/04/29 05:32:13;;;;;;;20.88;5.53;;;;;;;7.94;74.75;102946.22;5054114;28;20061;-78
2022/04/29 05:34:39;;;;;;;25.92;5.25;;;;;;;7.93;74.86;102938.31;5053064;28;20135;-77
2022/04/29 05:37:04;;;;;;;15.13;4.90;;;;;;;8.00;74.92;102951.13;5061994;28;20025;-77
2022/04/29 05:42:22;;;;;;;14.35;5.20;;;;;;;8.03;74.40;102942.88;5075826;28;20051;-76
2022/04/29 05:44:48;;;;;;;21.70;5.90;;;;;;;8.17;74.34;102957.94;5075589;28;20036;-80
2022/04/29 05:47:13;;;;;;;16.20;4.80;;;;;;;8.23;74.19;102952.09;5076241;28;20017;-76
2022/04/29 05:49:38;;;;;;;14.63;5.25;;;;;;;8.39;73.29;102946.47;5076726;28;20028;-78
2022/04/29 05:52:05;;;;;;;14.60;4.45;;;;;;;8.39;73.15;102946.47;5064658;28;20021;-78
2022/04/29 05:54:31;;;;;;;11.13;4.00;;;;;;;8.39;73.14;102945.59;5059934;28;20397;-77
2022/04/29 05:56:57;;;;;;;20.38;4.72;;;;;;;8.38;73.29;102950.13;5068089;28;20051;-78
2022/04/29 05:59:22;;;;;;;11.30;4.45;;;;;;;8.41;73.20;102949.91;5064672;28;20082;-76
2022/04/29 06:01:48;;;;;;;26.35;5.82;;;;;;;8.45;72.92;102954.09;5050770;28;20036;-76
2022/04/29 06:04:13;;;;;;;14.45;4.30;;;;;;;8.48;72.77;102951.16;5069528;28;20051;-76
2022/04/29 06:06:38;;;;;;;15.18;5.28;;;;;;;8.48;72.57;102958.38;5071628;28;20024;-77
2022/04/29 06:09:04;;;;;;;11.43;3.70;;;;;;;8.52;72.71;102967.88;5054135;28;20102;-75
2022/04/29 06:11:29;;;;;;;24.17;4.75;;;;;;;8.59;72.34;102979.03;5054671;28;20025;-79
2022/04/29 06:13:54;;;;;;;15.00;4.30;;;;;;;8.70;72.01;102976.38;5054405;28;20035;-79
2022/04/29 06:16:20;;;;;;;10.63;4.60;;;;;;;8.80;71.96;102974.69;5056241;28;20020;-77
2022/04/29 06:18:45;;;;;;;17.00;3.85;;;;;;;8.86;71.43;102970.66;5073222;28;20020;-77
2022/04/29 06:21:11;;;;;;;16.15;4.10;;;;;;;8.86;70.78;102978.72;5075038;28;20108;-77
2022/04/29 06:23:36;;;;;;;11.00;3.65;;;;;;;8.78;71.46;102979.31;5062845;28;20090;-79
2022/04/29 06:26:01;;;;;;;13.55;4.28;;;;;;;8.79;71.73;102981.91;5071548;28;20028;-79
2022/04/29 06:28:27;;;;;;;20.02;4.60;;;;;;;8.91;70.99;102988.13;5072969;28;20025;-77
2022/04/29 06:30:52;;;;;;;14.10;4.25;;;;;;;9.16;71.26;102991.59;5072329;28;20028;-79
2022/04/29 06:33:18;;;;;;;11.88;4.05;;;;;;;9.53;69.49;102991.38;5060133;28;20040;-77
2022/04/29 06:35:43;;;;;;;16.95;4.43;;;;;;;9.77;69.11;102994.81;5066814;28;20056;-77
2022/04/29 06:38:12;;;;;;;20.05;3.70;;;;;;;9.98;67.88;102992.19;5073260;28;20028;-76
2022/04/29 06:40:37;;;;;;;20.38;4.53;;;;;;;10.04;67.18;102986.31;5073061;28;20032;-77
2022/04/29 06:43:03;;;;;;;12.05;4.75;;;;;;;9.89;66.83;102988.41;5071283;28;20093;-77
2022/04/29 06:45:28;;;;;;;14.40;4.20;;;;;;;9.61;67.62;102991.59;5061793;28;20065;-79
2022/04/29 06:47:53;;;;;;;14.70;4.05;;;;;;;9.44;68.48;102982.22;5071957;28;20085;-78
2022/04/29 06:50:19;;;;;;;12.10;4.32;;;;;;;9.35;68.91;102981.13;5068928;28;20039;-78
2022/04/29 06:52:44;;;;;;;14.10;4.60;;;;;;;9.26;69.64;102983.66;5069501;28;21353;-76
2022/04/29 06:55:09;;;;;;;15.18;4.95;;;;;;;9.21;69.60;102978.66;5071021;28;20033;-79
2022/04/29 06:57:35;;;;;;;13.10;4.53;;;;;;;9.13;70.50;102973.88;5071231;28;20036;-78
2022/04/29 07:00:00;;;;;;;20.98;4.47;;;;;;;9.13;70.39;102978.41;5072775;28;20169;-79
2022/04/29 07:02:26;;;;;;;16.60;4.65;;;;;;;9.06;70.43;102969.09;5073709;28;20031;-77
2022/04/29 07:04:54;;;;;;;10.68;4.10;;;;;;;9.01;69.76;102977.53;5072650;28;20033;-76
2022/04/29 07:07:19;;;;;;;;;;;;;;;8.96;70.53;102977.88;5073119;28;20037;-76
2022/04/29 07:09:45;;;;;;;15.23;4.40;;;;;;;8.95;70.29;102973.50;5072772;28;20003;-78
2022/04/29 07:12:10;;;;;;;16.27;4.63;;;;;;;8.93;70.79;102964.72;5071759;28;20029;-78
2022/04/29 07:14:35;;;;;;;18.05;4.60;;;;;;;8.89;70.86;102955.16;5069115;28;20020;-76
2022/04/29 07:17:01;;;;;;;19.00;4.97;;;;;;;8.84;71.55;102968.09;5073237;28;20112;-78
2022/04/29 07:19:26;;;;;;;11.80;4.70;;;;;;;8.74;71.41;102953.66;5073657;28;20161;-81
2022/04/29 07:21:51;;;;;;;13.10;4.78;;;;;;;8.77;71.83;102962.34;5071547;28;20097;-77
2022/04/29 07:24:18;;;;;;;9.38;4.65;;;;;;;8.76;71.26;102957.09;5072280;28;20020;-78
2022/04/29 07:26:43;;;;;;;24.67;5.55;;;;;;;8.68;71.87;102957.66;5070353;28;20083;-78
2022/04/29 07:29:09;;;;;;;15.10;4.82;;;;;;;8.71;72.27;102959.28;5072567;28;20033;-79
2022/04/29 07:31:34;;;;;;;16.27;4.57;;;;;;;8.74;72.10;102967.97;5072004;28;20368;-80
2022/04/29 07:34:00;;;;;;;12.70;4.90;;;;;;;8.85;71.82;102969.81;5071747;28;20024;-76
2022/04/29 07:42:06;;;;;;;21.60;4.97;;;;;;;9.10;71.78;102984.03;5065857;28;20090;-77
2022/04/29 07:44:32;;;;;;;9.90;4.30;;;;;;;9.19;70.66;102976.09;5082518;28;20020;-77
2022/04/29 07:46:57;;;;;;;18.38;4.50;;;;;;;9.32;70.12;102978.69;5083103;28;20049;-76
2022/04/29 07:49:23;;;;;;;12.57;4.22;;;;;;;9.36;69.16;102969.38;5065152;28;20037;-76
2022/04/29 07:51:48;;;;;;;12.00;4.20;;;;;;;9.34;69.34;102971.34;5081318;28;20037;-79
2022/04/29 07:54:13;;;;;;;10.48;3.97;;;;;;;9.34;69.41;102975.84;5068508;28;20035;-77
2022/04/29 07:56:39;;;;;;;9.93;3.90;;;;;;;9.41;68.69;102967.19;5076924;28;20051;-75
2022/04/29 07:59:04;;;;;;;13.90;3.63;;;;;;;9.38;68.51;102970.13;5083520;28;20033;-77
2022/04/29 08:01:30;;;;;;;12.23;3.80;;;;;;;9.36;68.66;102969.38;5083011;28;20115;-74
2022/04/29 08:03:55;;;;;;;15.20;4.45;;;;;;;9.32;68.54;102978.69;5082643;28;20056;-77
2022/04/29 08:06:21;;;;;;;15.38;3.90;;;;;;;9.23;68.91;102974.03;5084513;28;20032;-76
2022/04/29 08:08:47;;;;;;;10.70;3.40;;;;;;;9.29;69.88;102978.91;5085666;28;20032;-76
2022/04/29 08:11:14;;;;;;;15.65;4.15;;;;;;;9.36;69.49;102984.66;5084131;28;20032;-74
2022/04/29 08:13:40;;;;;;;15.35;3.85;;;;;;;9.42;69.21;102993.06;5086829;28;20013;-77
2022/04/29 08:16:06;;;;;;;11.55;4.45;;;;;;;9.48;68.08;102989.06;5082670;28;20056;-76
2022/04/29 08:18:32;;;;;;;10.20;3.67;;;;;;;9.52;68.15;102981.59;5087739;28;20009;-77
2022/04/29 08:20:58;;;;;;;14.43;4.32;;;;;;;9.50;68.18;102994.31;5085627;28;20075;-75
2022/04/29 08:23:23;;;;;;;12.75;4.57;;;;;;;9.50;68.57;102997.00;5080632;28;20111;-77
2022/04/29 08:25:49;;;;;;;13.75;4.20;;;;;;;9.48;68.61;102994.44;5075345;28;20445;-77
2022/04/29 08:28:14;;;;;;;9.05;4.05;;;;;;;9.53;68.35;102992.25;5074808;28;20424;-76
2022/04/29 08:30:39;;;;;;;11.93;3.95;;;;;;;9.57;68.48;102998.22;5075407;28;20468;-75
2022/04/29 08:33:05;;;;;;;10.27;3.47;;;;;;;9.61;68.20;102994.28;5076936;28;20029;-81
2022/04/29 08:35:30;;;;;;;13.18;4.85;;;;;;;9.62;68.19;102991.50;5063274;28;20421;-79
2022/04/29 08:37:57;;;;;;;17.10;4.47;;;;;;;9.73;68.04;102987.94;5058429;28;20041;-77
2022/04/29 08:40:22;;;;;;;9.65;4.05;;;;;;;9.80;67.71;102999.06;5056437;28;20044;-79
2022/04/29 08:42:48;;;;;;;17.40;4.20;;;;;;;9.79;67.66;103008.94;5060547;28;20025;-80
2022/04/29 08:45:16;;;;;;;14.25;4.85;;;;;;;9.86;67.78;103009.31;5063687;28;20029;-80
2022/04/29 08:47:43;;;;;;;17.50;4.15;;;;;;;9.95;67.51;102999.66;5059529;28;20044;-77
2022/04/29 08:50:17;;;;;;;11.55;3.60;;;;;;;9.97;67.26;102995.00;5058243;28;20479;-80
2022/04/29 08:52:44;;;;;;;18.40;5.15;;;;;;;10.03;67.02;102994.50;5068649;28;20025;-78
2022/04/29 09:00:41;;;;;;;14.55;4.28;;;;;;;10.16;66.75;103005.94;5069350;28;20036;-80
2022/04/29 09:03:11;;;;;;;15.18;4.28;;;;;;;10.20;67.29;103007.44;5071674;28;20025;-80
2022/04/29 09:05:36;;;;;;;16.77;4.35;;;;;;;10.27;66.88;103003.28;5071514;28;20037;-80
2022/04/29 09:08:04;;;;;;;14.95;4.75;;;;;;;10.35;66.92;103004.47;5074394;28;20070;-80
2022/04/29 09:10:34;;;;;;;9.95;4.30;;;;;;;10.45;66.46;103003.59;5074486;28;20034;-79
2022/04/29 09:13:14;;;;;;;11.77;4.00;;;;;;;10.56;66.17;102989.22;5071529;28;20025;-78
2022/04/29 09:15:57;;;;;;;11.95;4.20;;;;;;;10.51;65.15;102983.38;5068991;28;20116;-77
2022/04/29 09:18:32;;;;;;;13.48;4.72;;;;;;;10.43;65.30;102977.78;5069524;28;20017;-79
2022/04/29 09:20:58;;;;;;;9.18;4.20;;;;;;;10.39;65.83;102985.25;5068347;28;20033;-78
2022/04/29 09:23:28;;;;;;;10.20;4.78;;;;;;;10.39;65.36;102965.56;5068052;28;20028;-76
2022/04/29 09:25:55;;;;;;;10.90;4.40;;;;;;;10.33;66.04;102978.53;5069670;28;20097;-78
2022/04/29 09:28:22;;;;;;;11.57;4.78;;;;;;;10.36;65.81;102966.66;5069074;28;20021;-81
2022/04/29 09:30:48;;;;;;;15.85;5.03;;;;;;;10.43;65.97;102975.09;5071403;28;20033;-78
2022/04/29 09:33:21;;;;;;;12.32;5.00;;;;;;;10.52;66.33;102972.47;5072254;28;20029;-81
2022/04/29 09:35:49;;;;;;;15.75;5.32;;;;;;;10.50;65.99;102977.13;5070854;28;20519;-78
2022/04/29 09:40:59;;;;;;;8.82;4.63;;;;;;;10.59;66.70;102978.19;5072319;28;20079;-79
2022/04/29 09:43:35;;;;;;;11.95;5.00;;;;;;;10.53;66.33;102965.25;5071505;28;20021;-78
2022/04/29 09:46:10;;;;;;;23.33;5.55;;;;;;;10.51;66.29;102975.31;5069941;28;20481;-78
2022/04/29 09:48:58;;;;;;;17.88;5.45;;;;;;;10.48;66.01;102971.03;5050059;28;20020;-79
2022/04/29 09:51:39;;;;;;;8.65;4.53;;;;;;;10.54;65.22;102977.72;5067491;28;20083;-76
2022/04/29 09:54:09;;;;;;;12.35;4.43;;;;;;;10.51;64.80;102973.47;5067906;28;20076;-78
2022/04/29 09:56:34;;;;;;;20.55;4.68;;;;;;;10.48;65.06;102980.94;5070075;28;20071;-80
2022/04/29 09:59:00;;;;;;;13.20;4.30;;;;;;;10.59;65.42;102974.66;5069460;28;20033;-79
2022/04/29 10:01:26;;;;;;;13.45;3.80;;;;;;;10.64;65.44;102969.75;5068694;28;20040;-78
2022/04/29 10:03:51;;;;;;;14.10;4.95;;;;;;;10.81;64.46;102960.22;5070791;28;20060;-77
2022/04/29 10:06:18;;;;;;;8.50;4.15;;;;;;;10.95;63.79;102982.28;5071764;28;20012;-80
2022/04/29 10:08:44;;;;;;;12.25;3.97;;;;;;;11.07;63.43;102977.66;5071527;28;20049;-77
2022/04/29 10:11:09;;;;;;;11.50;3.72;;;;;;;11.28;62.94;102988.44;5073919;28;20076;-78
2022/04/29 10:13:36;;;;;;;15.13;4.57;;;;;;;11.40;61.52;102994.56;5069640;28;20045;-79
2022/04/29 10:16:01;;;;;;;16.58;4.03;;;;;;;11.40;61.10;102997.25;5069758;28;20017;-78
2022/04/29 10:21:16;;;;;;;8.43;3.60;;;;;;;11.65;60.16;102996.81;5082938;28;20044;-78
2022/04/29 10:23:48;;;;;;;11.25;3.97;;;;;;;11.70;60.10;102998.25;5073749;28;20057;-78
2022/04/29 10:26:20;;;;;;;6.13;3.80;;;;;;;11.68;60.08;102994.84;5072644;28;20021;-81
2022/04/29 10:28:46;;;;;;;11.63;3.90;;;;;;;11.75;60.29;102988.78;5071854;28;20087;-79
2022/04/29 10:31:21;;;;;;;9.15;4.15;;;;;;;11.85;59.38;102996.91;5069692;28;20096;-79
2022/04/29 10:33:47;;;;;;;13.23;3.90;;;;;;;11.88;59.48;102985.00;5068903;28;20092;-78
2022/04/29 10:36:16;;;;;;;8.88;4.00;;;;;;;12.04;58.95;102977.22;5084530;28;20053;-77
2022/04/29 10:38:48;;;;;;;11.57;3.60;;;;;;;12.22;58.43;102986.34;5069887;28;20096;-76
2022/04/29 10:41:21;;;;;;;13.73;4.38;;;;;;;12.22;57.78;102982.81;5070045;28;20033;-80
2022/04/29 10:43:47;;;;;;;9.50;4.20;;;;;;;12.36;57.29;102974.28;5068857;28;20025;-77
2022/04/29 10:46:23;;;;;;;19.63;4.50;;;;;;;12.71;56.51;102972.84;5069067;28;20085;-77
2022/04/29 10:48:50;;;;;;;12.90;4.35;;;;;;;12.95;55.67;102969.66;5070103;28;20384;-76
2022/04/29 10:51:21;;;;;;;12.35;4.78;;;;;;;13.19;55.44;102966.47;5068489;28;20033;-78
2022/04/29 10:53:53;;;;;;;7.00;3.90;;;;;;;13.41;54.33;102961.75;5084702;28;20056;-77
2022/04/29 10:56:30;;;;;;;13.13;4.78;;;;;;;13.52;54.53;102967.81;5083078;28;20033;-79
2022/04/29 10:59:10;;;;;;;7.38;4.07;;;;;;;13.83;54.20;102965.66;5071196;28;20067;-80
2022/04/29 11:01:38;;;;;;;11.50;4.50;;;;;;;14.03;52.92;102971.81;5069465;28;20059;-79
2022/04/29 11:04:08;;;;;;;10.90;4.32;;;;;;;14.30;53.18;102978.16;5070564;28;20021;-80
2022/04/29 11:06:38;;;;;;;11.77;4.72;;;;;;;14.51;51.66;102983.28;5086156;28;20053;-79
2022/04/29 11:09:35;;;;;;;16.00;5.18;;;;;;;14.52;51.37;102989.53;5070653;28;20021;-77
2022/04/29 11:12:02;;;;;;;6.85;4.47;;;;;;;14.59;51.23;102968.97;5068922;28;20114;-80
2022/04/29 11:14:27;;;;;;;8.20;4.20;;;;;;;14.91;50.64;102976.50;5071948;28;20029;-77
2022/04/29 11:16:53;;;;;;;10.20;4.05;;;;;;;15.44;49.42;102978.19;5073128;28;20033;-77
2022/04/29 11:19:21;;;;;;;12.95;4.30;;;;;;;15.93;47.97;102986.56;5073019;28;20088;-78
2022/04/29 11:24:42;;;;;;;14.77;5.05;;;;;;;16.08;47.70;102975.88;5073733;28;20094;-77
2022/04/29 11:27:07;;;;;;;6.70;4.03;;;;;;;16.00;47.24;102979.44;5073066;28;20023;-79
2022/04/29 11:29:41;;;;;;;10.57;3.97;;;;;;;15.84;48.14;102973.97;5073681;28;20029;-79
2022/04/29 11:32:07;;;;;;;13.02;3.90;;;;;;;15.87;47.75;102968.19;5077305;28;20090;-79
2022/04/29 11:34:32;;;;;;;11.23;4.18;;;;;;;15.79;48.25;102970.88;5077168;28;20122;-78
2022/04/29 11:36:58;;;;;;;8.48;4.18;;;;;;;16.08;47.58;102964.19;5076513;28;20032;-76
2022/04/29 11:39:23;;;;;;;11.50;4.13;;;;;;;16.13;47.65;102967.25;5078067;28;20025;-78
2022/04/29 11:41:56;;;;;;;14.73;4.30;;;;;;;16.19;47.82;102966.56;5075286;28;20029;-77
2022/04/29 11:44:35;;;;;;;10.18;4.50;;;;;;;16.79;44.97;102963.56;5077308;28;20483;-79
2022/04/29 11:47:01;;;;;;;8.70;4.00;;;;;;;17.37;44.92;102964.28;5078300;28;20071;-78